sensor_id;sensor_type;location;lat;lon;timestamp;pressure;altitude;pressure_sealevel;temperature;humidity
740;BME280;354;42.694;23.336;2022-08-02T00:01:45;95118.09;;;19.03;100.00
740;BME280;354;42.694;23.336;2022-08-02T00:04:10;95125.28;;;19.03;100.00
740;BME280;354;42.694;23.336;2022-08-02T00:06:36;95119.16;;;18.97;100.00
740;BME280;354;42.694;23.336;2022-08-02T00:09:03;95123.72;;;19.07;100.00
740;BME280;354;42.694;23.336;2022-08-02T00:11:28;95115.69;;;18.97;100.00
740;BME280;354;42.694;23.336;2022-08-02T00:13:54;95120.47;;;19.00;100.00
740;BME280;354;42.694;23.336;2022-08-02T00:16:20;95127.16;;;18.92;100.00
740;BME280;354;42.694;23.336;2022-08-02T00:18:45;95127.94;;;18.92;100.00
740;BME280;354;42.694;23.336;2022-08-02T00:21:11;95125.56;;;18.91;100.00
740;BME280;354;42.694;23.336;2022-08-02T00:23:36;95117.28;;;18.87;100.00
740;BME280;354;42.694;23.336;2022-08-02T00:26:01;95114.34;;;18.84;100.00
740;BME280;354;42.694;23.336;2022-08-02T00:28:27;95115.69;;;18.81;100.00
740;BME280;354;42.694;23.336;2022-08-02T00:30:52;95123.94;;;18.75;100.00
740;BME280;354;42.694;23.336;2022-08-02T00:33:18;95115.69;;;18.76;100.00
740;BME280;354;42.694;23.336;2022-08-02T00:35:44;95117.03;;;18.74;100.00
740;BME280;354;42.694;23.336;2022-08-02T00:38:12;95111.38;;;18.65;100.00
740;BME280;354;42.694;23.336;2022-08-02T00:40:39;95121.50;;;18.63;100.00
740;BME280;354;42.694;23.336;2022-08-02T00:43:09;95093.72;;;18.33;100.00
740;BME280;354;42.694;23.336;2022-08-02T00:45:40;95122.50;;;18.36;100.00
740;BME280;354;42.694;23.336;2022-08-02T00:48:07;95115.25;;;18.16;100.00
740;BME280;354;42.694;23.336;2022-08-02T00:50:34;95113.59;;;18.05;100.00
740;BME280;354;42.694;23.336;2022-08-02T00:53:00;95114.41;;;18.06;100.00
740;BME280;354;42.694;23.336;2022-08-02T00:55:26;95112.75;;;17.95;100.00
740;BME280;354;42.694;23.336;2022-08-02T00:57:52;95115.63;;;17.83;100.00
740;BME280;354;42.694;23.336;2022-08-02T01:00:18;95117.44;;;17.72;100.00
740;BME280;354;42.694;23.336;2022-08-02T01:02:44;95127.03;;;17.73;100.00
740;BME280;354;42.694;23.336;2022-08-02T01:05:10;95113.38;;;17.64;100.00
740;BME280;354;42.694;23.336;2022-08-02T01:07:36;95120.28;;;17.60;100.00
740;BME280;354;42.694;23.336;2022-08-02T01:10:01;95117.03;;;17.48;100.00
740;BME280;354;42.694;23.336;2022-08-02T01:12:27;95114.28;;;17.38;100.00
740;BME280;354;42.694;23.336;2022-08-02T01:14:55;95115.84;;;17.34;100.00
740;BME280;354;42.694;23.336;2022-08-02T01:20:18;95121.13;;;17.29;100.00
740;BME280;354;42.694;23.336;2022-08-02T01:23:17;95114.41;;;17.16;100.00
740;BME280;354;42.694;23.336;2022-08-02T01:34:49;95117.81;;;16.52;100.00
740;BME280;354;42.694;23.336;2022-08-02T01:37:18;95122.78;;;16.44;100.00
740;BME280;354;42.694;23.336;2022-08-02T01:39:46;95122.47;;;16.40;100.00
740;BME280;354;42.694;23.336;2022-08-02T01:42:14;95114.13;;;16.31;100.00
740;BME280;354;42.694;23.336;2022-08-02T01:44:42;95112.59;;;16.36;100.00
740;BME280;354;42.694;23.336;2022-08-02T01:47:14;95114.97;;;16.37;100.00
740;BME280;354;42.694;23.336;2022-08-02T01:49:44;95123.31;;;16.46;100.00
740;BME280;354;42.694;23.336;2022-08-02T01:52:10;95125.06;;;16.35;100.00
740;BME280;354;42.694;23.336;2022-08-02T01:55:03;95121.06;;;16.32;100.00
740;BME280;354;42.694;23.336;2022-08-02T01:57:35;95099.97;;;16.21;100.00
740;BME280;354;42.694;23.336;2022-08-02T02:00:03;95128.97;;;16.27;100.00
740;BME280;354;42.694;23.336;2022-08-02T02:02:30;95125.69;;;16.20;100.00
740;BME280;354;42.694;23.336;2022-08-02T02:04:57;95130.31;;;16.08;100.00
740;BME280;354;42.694;23.336;2022-08-02T02:07:24;95127.53;;;15.98;100.00
740;BME280;354;42.694;23.336;2022-08-02T02:09:51;95112.16;;;15.95;100.00
740;BME280;354;42.694;23.336;2022-08-02T02:12:18;95123.88;;;15.99;100.00
740;BME280;354;42.694;23.336;2022-08-02T02:14:44;95115.94;;;16.04;100.00
740;BME280;354;42.694;23.336;2022-08-02T02:17:11;95123.91;;;16.04;100.00
740;BME280;354;42.694;23.336;2022-08-02T02:19:37;95121.69;;;15.96;100.00
740;BME280;354;42.694;23.336;2022-08-02T02:22:04;95122.50;;;15.96;100.00
740;BME280;354;42.694;23.336;2022-08-02T02:24:30;95116.88;;;15.93;100.00
740;BME280;354;42.694;23.336;2022-08-02T02:26:57;95132.78;;;15.93;100.00
740;BME280;354;42.694;23.336;2022-08-02T02:29:27;95127.41;;;15.88;100.00
740;BME280;354;42.694;23.336;2022-08-02T02:31:54;95129.97;;;15.77;100.00
740;BME280;354;42.694;23.336;2022-08-02T02:34:26;95123.53;;;15.73;100.00
740;BME280;354;42.694;23.336;2022-08-02T02:36:53;95119.50;;;15.71;100.00
740;BME280;354;42.694;23.336;2022-08-02T02:39:22;95122.06;;;15.83;100.00
740;BME280;354;42.694;23.336;2022-08-02T02:41:52;95131.25;;;15.97;100.00
740;BME280;354;42.694;23.336;2022-08-02T02:44:20;95118.50;;;15.94;100.00
740;BME280;354;42.694;23.336;2022-08-02T02:46:49;95123.56;;;15.95;100.00
740;BME280;354;42.694;23.336;2022-08-02T02:49:17;95113.19;;;15.94;100.00
740;BME280;354;42.694;23.336;2022-08-02T02:51:43;95122.88;;;16.05;100.00
740;BME280;354;42.694;23.336;2022-08-02T02:54:10;95131.19;;;15.92;100.00
740;BME280;354;42.694;23.336;2022-08-02T02:56:37;95132.00;;;15.92;100.00
740;BME280;354;42.694;23.336;2022-08-02T02:59:03;95135.38;;;15.88;100.00
740;BME280;354;42.694;23.336;2022-08-02T03:01:29;95123.59;;;15.78;100.00
740;BME280;354;42.694;23.336;2022-08-02T03:04:04;95128.34;;;15.76;100.00
740;BME280;354;42.694;23.336;2022-08-02T03:06:31;95133.47;;;15.83;100.00
740;BME280;354;42.694;23.336;2022-08-02T03:08:58;95116.78;;;15.83;100.00
740;BME280;354;42.694;23.336;2022-08-02T03:11:24;95127.38;;;15.83;100.00
740;BME280;354;42.694;23.336;2022-08-02T03:13:55;95120.44;;;15.81;100.00
740;BME280;354;42.694;23.336;2022-08-02T03:16:21;95141.59;;;15.76;100.00
740;BME280;354;42.694;23.336;2022-08-02T03:18:47;95128.03;;;15.73;100.00
740;BME280;354;42.694;23.336;2022-08-02T03:21:12;95132.97;;;15.86;100.00
740;BME280;354;42.694;23.336;2022-08-02T03:23:40;95129.59;;;15.91;100.00
740;BME280;354;42.694;23.336;2022-08-02T03:26:07;95119.31;;;15.94;100.00
740;BME280;354;42.694;23.336;2022-08-02T03:28:33;95121.69;;;15.96;100.00
740;BME280;354;42.694;23.336;2022-08-02T03:30:59;95123.16;;;16.08;100.00
740;BME280;354;42.694;23.336;2022-08-02T03:33:25;95124.81;;;16.15;100.00
740;BME280;354;42.694;23.336;2022-08-02T03:35:53;95131.75;;;16.16;100.00
740;BME280;354;42.694;23.336;2022-08-02T03:38:22;95130.19;;;16.20;100.00
740;BME280;354;42.694;23.336;2022-08-02T03:40:48;95126.75;;;16.19;100.00
740;BME280;354;42.694;23.336;2022-08-02T03:43:15;95134.09;;;16.12;100.00
740;BME280;354;42.694;23.336;2022-08-02T03:45:46;95133.34;;;16.17;100.00
740;BME280;354;42.694;23.336;2022-08-02T03:48:13;95141.66;;;16.25;100.00
740;BME280;354;42.694;23.336;2022-08-02T03:50:39;95134.56;;;16.31;100.00
740;BME280;354;42.694;23.336;2022-08-02T03:53:06;95138.59;;;16.33;100.00
740;BME280;354;42.694;23.336;2022-08-02T03:55:32;95125.84;;;16.36;100.00
740;BME280;354;42.694;23.336;2022-08-02T03:57:58;95148.31;;;16.50;100.00
740;BME280;354;42.694;23.336;2022-08-02T04:00:23;95145.34;;;16.46;100.00
740;BME280;354;42.694;23.336;2022-08-02T04:02:49;95148.06;;;16.51;100.00
740;BME280;354;42.694;23.336;2022-08-02T04:05:15;95160.47;;;16.46;100.00
740;BME280;354;42.694;23.336;2022-08-02T04:07:41;95156.03;;;16.51;100.00
740;BME280;354;42.694;23.336;2022-08-02T04:10:08;95154.75;;;16.54;100.00
740;BME280;354;42.694;23.336;2022-08-02T04:12:33;95164.09;;;16.62;100.00
740;BME280;354;42.694;23.336;2022-08-02T04:15:00;95176.78;;;16.76;100.00
740;BME280;354;42.694;23.336;2022-08-02T04:17:30;95174.72;;;16.83;100.00
740;BME280;354;42.694;23.336;2022-08-02T04:20:07;95173.78;;;17.00;100.00
740;BME280;354;42.694;23.336;2022-08-02T04:25:13;95167.41;;;17.70;100.00
740;BME280;354;42.694;23.336;2022-08-02T04:27:40;95168.28;;;18.33;100.00
740;BME280;354;42.694;23.336;2022-08-02T04:30:06;95175.94;;;19.33;100.00
740;BME280;354;42.694;23.336;2022-08-02T04:32:33;95165.88;;;20.46;100.00
740;BME280;354;42.694;23.336;2022-08-02T04:34:59;95168.81;;;21.67;100.00
740;BME280;354;42.694;23.336;2022-08-02T04:37:25;95157.16;;;22.06;100.00
740;BME280;354;42.694;23.336;2022-08-02T04:39:51;95165.31;;;22.86;93.27
740;BME280;354;42.694;23.336;2022-08-02T04:42:20;95173.06;;;23.91;86.51
740;BME280;354;42.694;23.336;2022-08-02T04:44:46;95164.97;;;24.51;80.26
740;BME280;354;42.694;23.336;2022-08-02T04:47:11;95165.53;;;24.34;75.19
740;BME280;354;42.694;23.336;2022-08-02T04:49:37;95168.13;;;24.26;73.89
740;BME280;354;42.694;23.336;2022-08-02T04:52:03;95171.25;;;24.83;72.19
740;BME280;354;42.694;23.336;2022-08-02T04:54:28;95183.34;;;25.21;70.05
740;BME280;354;42.694;23.336;2022-08-02T04:56:53;95179.97;;;24.66;72.30
740;BME280;354;42.694;23.336;2022-08-02T04:59:19;95173.88;;;23.91;73.54
740;BME280;354;42.694;23.336;2022-08-02T05:01:45;95178.34;;;23.31;76.07
740;BME280;354;42.694;23.336;2022-08-02T05:04:10;95181.41;;;23.24;78.88
740;BME280;354;42.694;23.336;2022-08-02T05:06:36;95181.63;;;22.90;78.25
740;BME280;354;42.694;23.336;2022-08-02T05:09:01;95176.59;;;22.65;80.48
740;BME280;354;42.694;23.336;2022-08-02T05:11:26;95179.75;;;22.24;84.36
740;BME280;354;42.694;23.336;2022-08-02T05:13:52;95171.66;;;22.53;84.29
740;BME280;354;42.694;23.336;2022-08-02T05:16:17;95186.41;;;22.50;83.53
740;BME280;354;42.694;23.336;2022-08-02T05:18:43;95184.69;;;22.59;86.48
740;BME280;354;42.694;23.336;2022-08-02T05:21:08;95191.16;;;22.58;83.29
740;BME280;354;42.694;23.336;2022-08-02T05:23:34;95169.59;;;23.06;80.52
740;BME280;354;42.694;23.336;2022-08-02T05:25:59;95188.66;;;24.49;73.77
740;BME280;354;42.694;23.336;2022-08-02T05:28:24;95181.63;;;25.26;71.86
740;BME280;354;42.694;23.336;2022-08-02T05:30:50;95192.91;;;25.72;68.88
740;BME280;354;42.694;23.336;2022-08-02T05:33:16;95190.59;;;26.42;68.27
740;BME280;354;42.694;23.336;2022-08-02T05:35:41;95193.22;;;25.93;68.29
740;BME280;354;42.694;23.336;2022-08-02T05:38:07;95194.09;;;26.11;66.20
740;BME280;354;42.694;23.336;2022-08-02T05:40:32;95194.44;;;26.18;67.57
740;BME280;354;42.694;23.336;2022-08-02T05:42:58;95195.78;;;25.54;70.72
740;BME280;354;42.694;23.336;2022-08-02T05:45:23;95193.84;;;25.09;71.43
740;BME280;354;42.694;23.336;2022-08-02T05:47:49;95202.25;;;24.80;74.79
740;BME280;354;42.694;23.336;2022-08-02T05:50:14;95194.88;;;25.36;71.49
740;BME280;354;42.694;23.336;2022-08-02T05:52:44;95199.09;;;26.26;68.16
740;BME280;354;42.694;23.336;2022-08-02T05:55:15;95200.47;;;27.38;63.16
740;BME280;354;42.694;23.336;2022-08-02T06:00:45;95213.94;;;28.46;55.59
740;BME280;354;42.694;23.336;2022-08-02T06:03:20;95210.63;;;29.08;53.54
740;BME280;354;42.694;23.336;2022-08-02T06:06:04;95210.72;;;28.91;54.60
740;BME280;354;42.694;23.336;2022-08-02T06:08:47;95217.03;;;29.99;52.91
740;BME280;354;42.694;23.336;2022-08-02T06:11:18;95218.09;;;30.77;48.12
740;BME280;354;42.694;23.336;2022-08-02T06:13:45;95206.94;;;31.31;43.80
740;BME280;354;42.694;23.336;2022-08-02T06:16:11;95229.09;;;32.29;43.04
740;BME280;354;42.694;23.336;2022-08-02T06:18:39;95230.81;;;32.49;42.43
740;BME280;354;42.694;23.336;2022-08-02T06:21:05;95223.44;;;32.66;41.66
740;BME280;354;42.694;23.336;2022-08-02T06:23:31;95231.53;;;32.18;39.70
740;BME280;354;42.694;23.336;2022-08-02T06:25:57;95229.44;;;32.12;39.47
740;BME280;354;42.694;23.336;2022-08-02T06:28:24;95222.59;;;32.18;39.92
740;BME280;354;42.694;23.336;2022-08-02T06:30:51;95223.03;;;32.04;39.22
740;BME280;354;42.694;23.336;2022-08-02T06:33:17;95224.06;;;31.99;40.99
740;BME280;354;42.694;23.336;2022-08-02T06:35:51;95233.97;;;32.83;38.51
740;BME280;354;42.694;23.336;2022-08-02T06:38:21;95243.66;;;32.81;37.22
740;BME280;354;42.694;23.336;2022-08-02T06:41:06;95243.59;;;31.89;39.11
740;BME280;354;42.694;23.336;2022-08-02T06:44:01;95239.59;;;32.74;37.34
740;BME280;354;42.694;23.336;2022-08-02T06:46:27;95238.22;;;32.65;37.25
740;BME280;354;42.694;23.336;2022-08-02T06:48:53;95240.97;;;32.21;36.48
740;BME280;354;42.694;23.336;2022-08-02T06:51:19;95233.44;;;32.62;37.21
740;BME280;354;42.694;23.336;2022-08-02T06:53:45;95229.78;;;33.21;35.90
740;BME280;354;42.694;23.336;2022-08-02T06:56:11;95224.31;;;33.37;35.65
740;BME280;354;42.694;23.336;2022-08-02T06:58:36;95227.78;;;33.53;35.40
740;BME280;354;42.694;23.336;2022-08-02T07:01:02;95233.25;;;33.92;33.63
740;BME280;354;42.694;23.336;2022-08-02T07:03:35;95233.44;;;33.83;34.16
740;BME280;354;42.694;23.336;2022-08-02T07:06:01;95233.19;;;32.98;34.45
740;BME280;354;42.694;23.336;2022-08-02T07:08:26;95232.28;;;31.75;36.50
740;BME280;354;42.694;23.336;2022-08-02T07:10:55;95219.06;;;30.35;38.01
740;BME280;354;42.694;23.336;2022-08-02T07:13:22;95221.59;;;28.82;41.52
740;BME280;354;42.694;23.336;2022-08-02T07:15:47;95225.88;;;27.98;43.99
740;BME280;354;42.694;23.336;2022-08-02T07:18:13;95222.78;;;26.95;45.27
740;BME280;354;42.694;23.336;2022-08-02T07:20:43;95223.03;;;26.68;48.08
740;BME280;354;42.694;23.336;2022-08-02T07:23:08;95210.53;;;26.32;47.89
740;BME280;354;42.694;23.336;2022-08-02T07:25:34;95225.72;;;25.97;49.43
740;BME280;354;42.694;23.336;2022-08-02T07:27:59;95214.75;;;26.24;49.62
740;BME280;354;42.694;23.336;2022-08-02T07:30:25;95225.72;;;27.25;47.10
740;BME280;354;42.694;23.336;2022-08-02T07:32:50;95210.28;;;29.51;42.48
740;BME280;354;42.694;23.336;2022-08-02T07:35:16;95218.38;;;29.93;40.34
740;BME280;354;42.694;23.336;2022-08-02T07:37:41;95209.50;;;28.79;41.89
740;BME280;354;42.694;23.336;2022-08-02T07:40:10;95217.94;;;27.41;46.07
740;BME280;354;42.694;23.336;2022-08-02T07:42:36;95216.03;;;27.15;45.15
740;BME280;354;42.694;23.336;2022-08-02T07:45:01;95210.34;;;26.60;47.11
740;BME280;354;42.694;23.336;2022-08-02T07:47:27;95204.63;;;26.30;47.94
740;BME280;354;42.694;23.336;2022-08-02T07:49:52;95211.38;;;26.10;49.98
740;BME280;354;42.694;23.336;2022-08-02T07:52:17;95202.84;;;25.86;50.49
740;BME280;354;42.694;23.336;2022-08-02T07:54:43;95208.88;;;25.91;49.92
740;BME280;354;42.694;23.336;2022-08-02T07:57:08;95213.47;;;25.68;50.65
740;BME280;354;42.694;23.336;2022-08-02T07:59:33;95208.91;;;25.33;50.74
740;BME280;354;42.694;23.336;2022-08-02T08:01:59;95214.69;;;25.40;51.47
740;BME280;354;42.694;23.336;2022-08-02T08:04:24;95210.03;;;25.54;52.99
740;BME280;354;42.694;23.336;2022-08-02T08:06:50;95205.63;;;25.58;52.27
740;BME280;354;42.694;23.336;2022-08-02T08:09:17;95212.84;;;25.49;52.29
740;BME280;354;42.694;23.336;2022-08-02T08:11:43;95213.13;;;25.39;54.64
740;BME280;354;42.694;23.336;2022-08-02T08:14:08;95210.25;;;25.21;53.38
740;BME280;354;42.694;23.336;2022-08-02T08:16:34;95205.91;;;25.12;53.82
740;BME280;354;42.694;23.336;2022-08-02T08:19:01;95206.38;;;25.28;55.56
740;BME280;354;42.694;23.336;2022-08-02T08:21:27;95205.19;;;25.42;55.95
740;BME280;354;42.694;23.336;2022-08-02T08:23:54;95207.78;;;25.47;55.02
740;BME280;354;42.694;23.336;2022-08-02T08:26:20;95199.88;;;25.29;55.66
740;BME280;354;42.694;23.336;2022-08-02T08:28:45;95198.22;;;25.19;55.87
740;BME280;354;42.694;23.336;2022-08-02T08:31:11;95205.25;;;24.79;56.96
740;BME280;354;42.694;23.336;2022-08-02T08:33:36;95196.13;;;25.02;56.96
740;BME280;354;42.694;23.336;2022-08-02T08:36:02;95194.41;;;25.20;57.27
740;BME280;354;42.694;23.336;2022-08-02T08:38:28;95192.72;;;25.46;57.30
740;BME280;354;42.694;23.336;2022-08-02T08:40:54;95200.63;;;25.43;55.98
740;BME280;354;42.694;23.336;2022-08-02T08:43:19;95202.59;;;25.29;57.33
740;BME280;354;42.694;23.336;2022-08-02T08:45:47;95195.88;;;25.26;57.97
740;BME280;354;42.694;23.336;2022-08-02T08:48:15;95205.38;;;25.23;57.85
740;BME280;354;42.694;23.336;2022-08-02T08:50:48;95197.63;;;25.22;56.30
740;BME280;354;42.694;23.336;2022-08-02T08:53:15;95177.84;;;25.27;56.99
740;BME280;354;42.694;23.336;2022-08-02T08:55:42;95190.16;;;25.64;58.62
740;BME280;354;42.694;23.336;2022-08-02T08:58:08;95197.69;;;25.75;57.12
740;BME280;354;42.694;23.336;2022-08-02T09:00:34;95186.88;;;25.44;56.19
740;BME280;354;42.694;23.336;2022-08-02T09:03:04;95194.00;;;25.49;56.31
740;BME280;354;42.694;23.336;2022-08-02T09:05:30;95192.59;;;25.52;54.39
740;BME280;354;42.694;23.336;2022-08-02T09:07:58;95191.44;;;25.66;55.84
740;BME280;354;42.694;23.336;2022-08-02T09:10:49;95186.22;;;25.70;55.42
740;BME280;354;42.694;23.336;2022-08-02T09:15:52;95197.31;;;25.91;55.04
740;BME280;354;42.694;23.336;2022-08-02T09:18:17;95196.88;;;25.97;54.40
740;BME280;354;42.694;23.336;2022-08-02T09:20:53;95194.22;;;25.75;53.30
740;BME280;354;42.694;23.336;2022-08-02T09:23:19;95187.13;;;25.65;53.49
740;BME280;354;42.694;23.336;2022-08-02T09:25:57;95192.41;;;25.48;55.10
740;BME280;354;42.694;23.336;2022-08-02T09:28:34;95187.97;;;25.66;55.10
740;BME280;354;42.694;23.336;2022-08-02T09:31:22;95182.69;;;25.83;54.20
740;BME280;354;42.694;23.336;2022-08-02T09:33:53;95172.53;;;26.11;54.88
740;BME280;354;42.694;23.336;2022-08-02T09:36:20;95179.28;;;26.40;54.62
740;BME280;354;42.694;23.336;2022-08-02T09:38:57;95159.44;;;26.36;53.25
740;BME280;354;42.694;23.336;2022-08-02T09:41:26;95188.50;;;26.39;52.01
740;BME280;354;42.694;23.336;2022-08-02T09:43:52;95177.34;;;26.32;52.13
740;BME280;354;42.694;23.336;2022-08-02T09:46:24;95172.59;;;26.28;52.62
740;BME280;354;42.694;23.336;2022-08-02T09:49:10;95174.13;;;26.43;52.28
740;BME280;354;42.694;23.336;2022-08-02T09:51:57;95177.13;;;26.50;50.46
740;BME280;354;42.694;23.336;2022-08-02T09:54:25;95169.00;;;26.42;50.71
740;BME280;354;42.694;23.336;2022-08-02T09:56:55;95163.06;;;26.22;52.05
740;BME280;354;42.694;23.336;2022-08-02T09:59:22;95158.19;;;26.33;51.60
740;BME280;354;42.694;23.336;2022-08-02T10:01:52;95165.81;;;26.40;53.01
740;BME280;354;42.694;23.336;2022-08-02T10:04:20;95162.53;;;26.51;53.40
740;BME280;354;42.694;23.336;2022-08-02T10:06:45;95148.59;;;26.49;51.50
740;BME280;354;42.694;23.336;2022-08-02T10:09:11;95158.28;;;26.68;50.98
740;BME280;354;42.694;23.336;2022-08-02T10:11:38;95161.03;;;26.76;50.80
740;BME280;354;42.694;23.336;2022-08-02T10:14:05;95160.72;;;26.87;50.83
740;BME280;354;42.694;23.336;2022-08-02T10:16:37;95170.13;;;27.15;49.70
740;BME280;354;42.694;23.336;2022-08-02T10:19:03;95174.25;;;27.30;49.98
740;BME280;354;42.694;23.336;2022-08-02T10:24:12;95148.16;;;27.60;48.55
740;BME280;354;42.694;23.336;2022-08-02T10:26:39;95155.81;;;27.49;49.93
740;BME280;354;42.694;23.336;2022-08-02T10:29:08;95161.72;;;27.25;50.25
740;BME280;354;42.694;23.336;2022-08-02T10:31:38;95155.41;;;26.64;50.64
740;BME280;354;42.694;23.336;2022-08-02T10:34:08;95157.38;;;26.90;49.54
740;BME280;354;42.694;23.336;2022-08-02T10:36:36;95150.91;;;27.25;49.71
740;BME280;354;42.694;23.336;2022-08-02T10:39:04;95150.38;;;27.67;47.87
740;BME280;354;42.694;23.336;2022-08-02T10:41:50;95149.84;;;27.91;47.93
740;BME280;354;42.694;23.336;2022-08-02T10:44:30;95148.44;;;28.61;48.53
740;BME280;354;42.694;23.336;2022-08-02T10:50:07;95152.28;;;29.31;44.73
740;BME280;354;42.694;23.336;2022-08-02T10:52:33;95131.50;;;28.73;45.23
740;BME280;354;42.694;23.336;2022-08-02T10:55:08;95154.28;;;28.42;46.38
740;BME280;354;42.694;23.336;2022-08-02T10:57:34;95153.41;;;28.21;47.78
740;BME280;354;42.694;23.336;2022-08-02T11:05:09;95155.34;;;27.39;49.92
740;BME280;354;42.694;23.336;2022-08-02T11:10:37;95148.00;;;27.65;52.70
740;BME280;354;42.694;23.336;2022-08-02T11:13:17;95148.44;;;27.84;50.00
740;BME280;354;42.694;23.336;2022-08-02T11:16:01;95141.03;;;28.11;47.38
740;BME280;354;42.694;23.336;2022-08-02T11:23:50;95143.84;;;29.12;43.96
740;BME280;354;42.694;23.336;2022-08-02T11:28:54;95140.16;;;28.96;46.48
740;BME280;354;42.694;23.336;2022-08-02T11:31:19;95149.78;;;29.26;44.88
740;BME280;354;42.694;23.336;2022-08-02T11:33:48;95139.38;;;29.28;46.37
740;BME280;354;42.694;23.336;2022-08-02T11:36:15;95147.59;;;29.40;44.52
740;BME280;354;42.694;23.336;2022-08-02T11:38:40;95144.22;;;29.23;43.79
740;BME280;354;42.694;23.336;2022-08-02T11:41:06;95139.47;;;28.99;44.44
740;BME280;354;42.694;23.336;2022-08-02T11:43:32;95132.47;;;28.98;44.98
740;BME280;354;42.694;23.336;2022-08-02T11:46:04;95139.34;;;28.95;44.09
740;BME280;354;42.694;23.336;2022-08-02T11:48:37;95134.19;;;29.02;44.36
740;BME280;354;42.694;23.336;2022-08-02T11:51:07;95130.06;;;28.75;44.96
740;BME280;354;42.694;23.336;2022-08-02T11:53:54;95130.56;;;28.48;46.69
740;BME280;354;42.694;23.336;2022-08-02T11:56:27;95128.84;;;28.34;48.78
740;BME280;354;42.694;23.336;2022-08-02T11:59:06;95139.66;;;28.43;48.66
740;BME280;354;42.694;23.336;2022-08-02T12:01:33;95138.59;;;28.35;47.59
740;BME280;354;42.694;23.336;2022-08-02T12:04:01;95143.47;;;27.95;47.56
740;BME280;354;42.694;23.336;2022-08-02T12:06:27;95139.88;;;27.82;47.16
740;BME280;354;42.694;23.336;2022-08-02T12:09:04;95143.06;;;27.67;47.50
740;BME280;354;42.694;23.336;2022-08-02T12:11:30;95140.50;;;27.62;47.55
740;BME280;354;42.694;23.336;2022-08-02T12:13:56;95128.75;;;27.67;47.48
740;BME280;354;42.694;23.336;2022-08-02T12:16:22;95135.59;;;27.64;48.05
740;BME280;354;42.694;23.336;2022-08-02T12:19:06;95132.09;;;27.64;48.07
740;BME280;354;42.694;23.336;2022-08-02T12:21:44;95129.72;;;27.62;48.61
740;BME280;354;42.694;23.336;2022-08-02T12:24:11;95134.81;;;27.64;48.76
740;BME280;354;42.694;23.336;2022-08-02T12:26:44;95121.28;;;27.72;50.74
740;BME280;354;42.694;23.336;2022-08-02T12:29:10;95131.28;;;27.80;49.94
740;BME280;354;42.694;23.336;2022-08-02T12:31:43;95139.88;;;27.65;49.72
740;BME280;354;42.694;23.336;2022-08-02T12:34:18;95124.63;;;27.61;49.72
740;BME280;354;42.694;23.336;2022-08-02T12:37:01;95128.78;;;27.75;48.52
740;BME280;354;42.694;23.336;2022-08-02T12:42:00;95133.81;;;27.86;47.29
740;BME280;354;42.694;23.336;2022-08-02T12:44:25;95122.25;;;27.76;48.15
740;BME280;354;42.694;23.336;2022-08-02T12:46:58;95134.63;;;27.77;48.29
740;BME280;354;42.694;23.336;2022-08-02T12:49:24;95125.91;;;27.80;47.75
740;BME280;354;42.694;23.336;2022-08-02T12:51:49;95129.03;;;27.91;46.87
740;BME280;354;42.694;23.336;2022-08-02T12:54:38;95125.94;;;28.01;46.84
740;BME280;354;42.694;23.336;2022-08-02T12:57:11;95112.78;;;28.29;46.32
740;BME280;354;42.694;23.336;2022-08-02T12:59:39;95116.47;;;28.63;46.04
740;BME280;354;42.694;23.336;2022-08-02T13:02:07;95117.69;;;28.66;45.59
740;BME280;354;42.694;23.336;2022-08-02T13:04:33;95110.25;;;28.63;44.98
740;BME280;354;42.694;23.336;2022-08-02T13:06:59;95111.03;;;28.63;45.00
740;BME280;354;42.694;23.336;2022-08-02T13:09:24;95114.78;;;28.50;45.12
740;BME280;354;42.694;23.336;2022-08-02T13:11:50;95108.16;;;28.68;44.52
740;BME280;354;42.694;23.336;2022-08-02T13:14:15;95108.06;;;28.77;45.02
740;BME280;354;42.694;23.336;2022-08-02T13:16:43;95105.81;;;28.58;46.55
740;BME280;354;42.694;23.336;2022-08-02T13:19:08;95107.03;;;28.69;46.86
740;BME280;354;42.694;23.336;2022-08-02T13:21:34;95110.72;;;28.65;47.19
740;BME280;354;42.694;23.336;2022-08-02T13:23:59;95091.72;;;28.44;47.40
740;BME280;354;42.694;23.336;2022-08-02T13:26:25;95095.41;;;28.01;48.27
740;BME280;354;42.694;23.336;2022-08-02T13:28:50;95113.97;;;27.81;48.03
740;BME280;354;42.694;23.336;2022-08-02T13:31:16;95115.22;;;27.67;48.99
740;BME280;354;42.694;23.336;2022-08-02T13:33:41;95116.69;;;27.47;48.85
740;BME280;354;42.694;23.336;2022-08-02T13:36:07;95101.03;;;27.31;50.85
740;BME280;354;42.694;23.336;2022-08-02T13:38:32;95110.84;;;27.45;48.50
740;BME280;354;42.694;23.336;2022-08-02T13:40:57;95115.91;;;27.46;48.18
740;BME280;354;42.694;23.336;2022-08-02T13:43:36;95116.84;;;27.59;48.40
740;BME280;354;42.694;23.336;2022-08-02T13:46:06;95115.53;;;27.82;50.27
740;BME280;354;42.694;23.336;2022-08-02T13:48:32;95112.94;;;28.03;47.51
740;BME280;354;42.694;23.336;2022-08-02T13:50:58;95103.41;;;28.27;46.62
740;BME280;354;42.694;23.336;2022-08-02T13:53:23;95111.84;;;28.64;46.47
740;BME280;354;42.694;23.336;2022-08-02T13:55:49;95112.75;;;28.88;46.08
740;BME280;354;42.694;23.336;2022-08-02T13:58:15;95105.41;;;28.89;45.72
740;BME280;354;42.694;23.336;2022-08-02T14:00:40;95110.84;;;28.89;45.93
740;BME280;354;42.694;23.336;2022-08-02T14:03:07;95119.28;;;28.67;45.47
740;BME280;354;42.694;23.336;2022-08-02T14:05:37;95098.66;;;28.24;46.45
740;BME280;354;42.694;23.336;2022-08-02T14:08:03;95116.97;;;28.18;46.79
740;BME280;354;42.694;23.336;2022-08-02T14:10:29;95116.50;;;27.87;47.08
740;BME280;354;42.694;23.336;2022-08-02T14:12:54;95125.13;;;27.71;47.44
740;BME280;354;42.694;23.336;2022-08-02T14:15:20;95113.03;;;27.60;47.85
740;BME280;354;42.694;23.336;2022-08-02T14:17:45;95119.38;;;27.73;47.48
740;BME280;354;42.694;23.336;2022-08-02T14:20:12;95112.94;;;27.95;47.83